KDSM/DSM METAR and TAF weather

Enter ICAO airport designator
Station Type Date Time Source
KDSM METAR 2022/05/26 04:54 UTC NOAA

KDSM 260454Z 01005KT 10SM OVC006 13/12 A2971 RMK AO2 SLP061 T01280122


Station Type Date Time Source
KDSM Decoded METAR 2022/05/26 04:54 UTC NOAA

DES MOINES INTERNATIONAL, IA, United States (KDSM) 41-32N 93-40W 295M
May 26, 2022 - 12:54 AM EDT / 2022.05.26 0454 UTC
Wind: from the N (010 degrees) at 6 MPH (5 KT):0
Visibility: 10 mile(s):0
Sky conditions: overcast
Temperature: 55.0 F (12.8 C)
Dew Point: 54.0 F (12.2 C)
Relative Humidity: 96%
Pressure (altimeter): 29.71 in. Hg (1006 hPa)
ob: KDSM 260454Z 01005KT 10SM OVC006 13/12 A2971 RMK AO2 SLP061 T01280122
cycle: 5

Station Type Date Time Source
KDSM TAF 2022/05/25 18:36 UTC NOAA

TAF KDSM 251732Z 2518/2618 01009KT 5SM -RA BR OVC005
FM252000 02009G17KT 6SM BR VCSH OVC003
FM252300 01009G17KT 3SM -SHRA BR OVC003
FM260300 03008G16KT P6SM VCSH OVC003
FM260600 02007KT P6SM OVC003
FM261700 35009KT P6SM BKN010

Example: see airport list